sensor_id;sensor_type;location;lat;lon;timestamp;pressure;altitude;pressure_sealevel;temperature;humidity
29505;BME280;16452;54.174;12.092;2022-08-11T00:00:41;102447.34;;;23.24;77.66
29505;BME280;16452;54.174;12.092;2022-08-11T00:03:11;102444.81;;;23.23;77.33
29505;BME280;16452;54.174;12.092;2022-08-11T00:05:47;102446.63;;;23.00;78.54
29505;BME280;16452;54.174;12.092;2022-08-11T00:08:26;102442.28;;;22.99;78.02
29505;BME280;16452;54.174;12.092;2022-08-11T00:11:03;102441.81;;;23.16;77.89
29505;BME280;16452;54.174;12.092;2022-08-11T00:13:49;102438.19;;;23.06;77.52
29505;BME280;16452;54.174;12.092;2022-08-11T00:16:20;102436.09;;;22.99;78.22
29505;BME280;16452;54.174;12.092;2022-08-11T00:18:54;102438.31;;;22.70;79.29
29505;BME280;16452;54.174;12.092;2022-08-11T00:21:22;102440.22;;;22.68;79.13
29505;BME280;16452;54.174;12.092;2022-08-11T00:24:07;102438.38;;;22.92;77.80
29505;BME280;16452;54.174;12.092;2022-08-11T00:26:34;102435.59;;;22.82;78.85
29505;BME280;16452;54.174;12.092;2022-08-11T00:29:09;102428.97;;;22.88;78.55
29505;BME280;16452;54.174;12.092;2022-08-11T00:31:36;102431.25;;;22.92;79.07
29505;BME280;16452;54.174;12.092;2022-08-11T00:34:09;102441.66;;;23.07;78.32
29505;BME280;16452;54.174;12.092;2022-08-11T00:36:59;102432.84;;;23.06;77.75
29505;BME280;16452;54.174;12.092;2022-08-11T00:39:26;102438.88;;;22.62;79.84
29505;BME280;16452;54.174;12.092;2022-08-11T00:45:22;102433.28;;;22.89;78.47
29505;BME280;16452;54.174;12.092;2022-08-11T00:48:18;102439.50;;;22.66;79.09
29505;BME280;16452;54.174;12.092;2022-08-11T00:51:09;102438.03;;;22.62;79.80
29505;BME280;16452;54.174;12.092;2022-08-11T00:57:44;102442.97;;;22.90;78.06
29505;BME280;16452;54.174;12.092;2022-08-11T01:00:21;102437.25;;;22.72;79.03
29505;BME280;16452;54.174;12.092;2022-08-11T01:03:53;102445.31;;;22.60;78.44
29505;BME280;16452;54.174;12.092;2022-08-11T01:39:35;102451.22;;;22.63;79.02
29505;BME280;16452;54.174;12.092;2022-08-11T01:53:56;102448.47;;;22.06;82.67
29505;BME280;16452;54.174;12.092;2022-08-11T01:59:53;102464.28;;;21.58;83.95
29505;BME280;16452;54.174;12.092;2022-08-11T02:02:39;102449.91;;;22.10;81.61
29505;BME280;16452;54.174;12.092;2022-08-11T02:05:51;102449.88;;;21.99;81.69
29505;BME280;16452;54.174;12.092;2022-08-11T02:11:48;102446.06;;;21.54;83.55
29505;BME280;16452;54.174;12.092;2022-08-11T02:17:57;102452.66;;;21.48;82.80
29505;BME280;16452;54.174;12.092;2022-08-11T02:20:43;102444.84;;;21.70;82.08
29505;BME280;16452;54.174;12.092;2022-08-11T02:23:54;102447.09;;;21.64;82.35
29505;BME280;16452;54.174;12.092;2022-08-11T02:26:37;102451.41;;;21.16;84.17
29505;BME280;16452;54.174;12.092;2022-08-11T02:29:24;102453.63;;;21.22;84.26
29505;BME280;16452;54.174;12.092;2022-08-11T02:32:16;102446.47;;;21.60;82.67
29505;BME280;16452;54.174;12.092;2022-08-11T02:35:18;102449.63;;;21.65;82.25
29505;BME280;16452;54.174;12.092;2022-08-11T02:41:20;102435.53;;;21.65;80.88
29505;BME280;16452;54.174;12.092;2022-08-11T02:44:43;102432.75;;;21.66;80.91
29505;BME280;16452;54.174;12.092;2022-08-11T02:47:35;102433.00;;;21.51;82.20
29505;BME280;16452;54.174;12.092;2022-08-11T02:50:21;102443.94;;;21.34;82.30
29505;BME280;16452;54.174;12.092;2022-08-11T02:53:15;102434.41;;;21.80;80.79
29505;BME280;16452;54.174;12.092;2022-08-11T02:56:05;102434.00;;;21.37;82.42
29505;BME280;16452;54.174;12.092;2022-08-11T03:02:25;102439.16;;;21.39;82.38
29505;BME280;16452;54.174;12.092;2022-08-11T03:05:17;102426.84;;;21.50;81.22
29505;BME280;16452;54.174;12.092;2022-08-11T03:08:12;102432.91;;;21.14;82.09
29505;BME280;16452;54.174;12.092;2022-08-11T03:11:04;102433.16;;;21.24;82.35
29505;BME280;16452;54.174;12.092;2022-08-11T03:14:06;102432.81;;;21.03;83.01
29505;BME280;16452;54.174;12.092;2022-08-11T03:20:07;102430.75;;;21.57;81.58
29505;BME280;16452;54.174;12.092;2022-08-11T03:23:33;102427.84;;;21.73;80.87
29505;BME280;16452;54.174;12.092;2022-08-11T03:26:32;102427.97;;;21.71;81.09
29505;BME280;16452;54.174;12.092;2022-08-11T03:29:22;102434.28;;;21.82;81.33
29505;BME280;16452;54.174;12.092;2022-08-11T03:32:20;102437.56;;;21.98;82.37
29505;BME280;16452;54.174;12.092;2022-08-11T03:34:53;102442.41;;;21.91;82.65
29505;BME280;16452;54.174;12.092;2022-08-11T03:40:40;102439.75;;;21.67;84.34
29505;BME280;16452;54.174;12.092;2022-08-11T03:44:06;102440.03;;;21.76;83.48
29505;BME280;16452;54.174;12.092;2022-08-11T03:47:01;102441.88;;;21.62;84.00
29505;BME280;16452;54.174;12.092;2022-08-11T04:14:10;102436.94;;;21.82;81.34
29505;BME280;16452;54.174;12.092;2022-08-11T04:26:29;102433.09;;;21.49;82.18
29505;BME280;16452;54.174;12.092;2022-08-11T04:36:01;102431.78;;;21.67;83.36
29505;BME280;16452;54.174;12.092;2022-08-11T04:39:08;102439.63;;;21.69;83.05
29505;BME280;16452;54.174;12.092;2022-08-11T04:45:39;102436.56;;;23.70;74.79
29505;BME280;16452;54.174;12.092;2022-08-11T04:48:25;102432.25;;;24.44;71.00
29505;BME280;16452;54.174;12.092;2022-08-11T05:05:18;102425.72;;;27.59;55.62
29505;BME280;16452;54.174;12.092;2022-08-11T05:08:17;102432.00;;;27.41;56.53
29505;BME280;16452;54.174;12.092;2022-08-11T05:11:10;102432.72;;;28.05;54.05
29505;BME280;16452;54.174;12.092;2022-08-11T05:13:50;102430.84;;;28.15;53.95
29505;BME280;16452;54.174;12.092;2022-08-11T05:16:52;102439.41;;;28.01;54.47
29505;BME280;16452;54.174;12.092;2022-08-11T05:19:38;102435.19;;;28.78;53.40
29505;BME280;16452;54.174;12.092;2022-08-11T05:22:28;102449.78;;;28.57;52.88
29505;BME280;16452;54.174;12.092;2022-08-11T05:25:29;102441.78;;;28.40;53.17
29505;BME280;16452;54.174;12.092;2022-08-11T05:28:34;102447.53;;;28.27;53.38
29505;BME280;16452;54.174;12.092;2022-08-11T05:31:28;102447.78;;;28.16;51.77
29505;BME280;16452;54.174;12.092;2022-08-11T05:34:28;102445.91;;;28.34;51.37
29505;BME280;16452;54.174;12.092;2022-08-11T05:40:08;102455.00;;;28.77;49.41
29505;BME280;16452;54.174;12.092;2022-08-11T05:42:59;102459.72;;;29.34;48.30
29505;BME280;16452;54.174;12.092;2022-08-11T05:46:02;102465.03;;;28.57;50.36
29505;BME280;16452;54.174;12.092;2022-08-11T05:48:47;102461.84;;;27.73;51.66
29505;BME280;16452;54.174;12.092;2022-08-11T05:51:41;102463.78;;;27.81;51.42
29505;BME280;16452;54.174;12.092;2022-08-11T05:54:27;102469.81;;;26.72;54.04
29505;BME280;16452;54.174;12.092;2022-08-11T05:57:30;102466.69;;;25.99;54.35
29505;BME280;16452;54.174;12.092;2022-08-11T06:00:06;102474.94;;;25.87;55.65
29505;BME280;16452;54.174;12.092;2022-08-11T06:02:51;102475.31;;;25.63;57.81
29505;BME280;16452;54.174;12.092;2022-08-11T06:05:20;102463.09;;;25.70;57.30
29505;BME280;16452;54.174;12.092;2022-08-11T06:07:48;102467.00;;;26.35;54.07
29505;BME280;16452;54.174;12.092;2022-08-11T06:10:32;102460.09;;;26.51;52.88
29505;BME280;16452;54.174;12.092;2022-08-11T06:12:59;102462.34;;;26.56;53.49
29505;BME280;16452;54.174;12.092;2022-08-11T06:15:25;102461.78;;;26.62;55.67
29505;BME280;16452;54.174;12.092;2022-08-11T06:17:55;102463.84;;;26.87;54.50
29505;BME280;16452;54.174;12.092;2022-08-11T06:20:26;102459.94;;;26.91;55.42
29505;BME280;16452;54.174;12.092;2022-08-11T06:23:03;102454.88;;;26.21;54.44
29505;BME280;16452;54.174;12.092;2022-08-11T06:25:34;102460.38;;;26.68;55.96
29505;BME280;16452;54.174;12.092;2022-08-11T06:28:05;102463.34;;;26.65;53.11
29505;BME280;16452;54.174;12.092;2022-08-11T06:30:38;102464.28;;;27.02;53.61
29505;BME280;16452;54.174;12.092;2022-08-11T06:33:34;102458.19;;;27.10;55.62
29505;BME280;16452;54.174;12.092;2022-08-11T06:40:02;102452.38;;;27.14;53.81
29505;BME280;16452;54.174;12.092;2022-08-11T06:42:51;102458.50;;;27.07;55.18
29505;BME280;16452;54.174;12.092;2022-08-11T06:45:54;102454.56;;;27.01;53.65
29505;BME280;16452;54.174;12.092;2022-08-11T06:48:23;102449.63;;;27.06;54.70
29505;BME280;16452;54.174;12.092;2022-08-11T06:51:07;102451.66;;;27.22;53.75
29505;BME280;16452;54.174;12.092;2022-08-11T06:53:55;102441.53;;;27.16;53.71
29505;BME280;16452;54.174;12.092;2022-08-11T06:56:34;102446.22;;;27.14;53.83
29505;BME280;16452;54.174;12.092;2022-08-11T06:59:20;102444.84;;;27.37;54.38
29505;BME280;16452;54.174;12.092;2022-08-11T07:02:19;102446.38;;;27.39;53.81
29505;BME280;16452;54.174;12.092;2022-08-11T07:05:09;102446.75;;;27.54;54.07
29505;BME280;16452;54.174;12.092;2022-08-11T07:14:06;102444.13;;;27.35;54.03
29505;BME280;16452;54.174;12.092;2022-08-11T07:16:52;102446.41;;;27.85;53.89
29505;BME280;16452;54.174;12.092;2022-08-11T07:19:29;102442.25;;;27.72;55.02
29505;BME280;16452;54.174;12.092;2022-08-11T07:22:14;102441.59;;;27.70;55.06
29505;BME280;16452;54.174;12.092;2022-08-11T07:25:15;102442.25;;;27.45;56.65
29505;BME280;16452;54.174;12.092;2022-08-11T07:28:28;102439.44;;;27.74;55.51
29505;BME280;16452;54.174;12.092;2022-08-11T07:31:21;102446.88;;;27.25;57.02
29505;BME280;16452;54.174;12.092;2022-08-11T07:33:52;102442.56;;;27.05;57.22
29505;BME280;16452;54.174;12.092;2022-08-11T07:36:24;102441.25;;;27.19;57.02
29505;BME280;16452;54.174;12.092;2022-08-11T07:38:54;102450.88;;;27.39;57.36
29505;BME280;16452;54.174;12.092;2022-08-11T07:41:23;102449.03;;;27.03;58.54
29505;BME280;16452;54.174;12.092;2022-08-11T07:43:56;102448.31;;;27.20;59.82
29505;BME280;16452;54.174;12.092;2022-08-11T07:46:40;102446.69;;;27.00;60.36
29505;BME280;16452;54.174;12.092;2022-08-11T07:49:26;102449.84;;;26.47;61.59
29505;BME280;16452;54.174;12.092;2022-08-11T07:52:12;102449.00;;;26.46;61.22
29505;BME280;16452;54.174;12.092;2022-08-11T07:55:18;102451.78;;;26.16;61.01
29505;BME280;16452;54.174;12.092;2022-08-11T07:57:46;102446.50;;;26.26;62.03
29505;BME280;16452;54.174;12.092;2022-08-11T08:00:44;102449.41;;;26.13;61.70
29505;BME280;16452;54.174;12.092;2022-08-11T08:03:29;102452.63;;;26.16;65.88
29505;BME280;16452;54.174;12.092;2022-08-11T08:06:15;102458.41;;;26.12;65.84
29505;BME280;16452;54.174;12.092;2022-08-11T08:09:00;102453.44;;;25.98;66.57
29505;BME280;16452;54.174;12.092;2022-08-11T08:11:45;102458.97;;;26.44;67.43
29505;BME280;16452;54.174;12.092;2022-08-11T08:14:31;102462.88;;;25.92;67.02
29505;BME280;16452;54.174;12.092;2022-08-11T08:17:19;102454.63;;;26.14;67.63
29505;BME280;16452;54.174;12.092;2022-08-11T08:20:05;102459.84;;;26.54;64.99
29505;BME280;16452;54.174;12.092;2022-08-11T08:22:34;102460.84;;;26.25;66.85
29505;BME280;16452;54.174;12.092;2022-08-11T08:25:01;102454.75;;;26.13;67.01
29505;BME280;16452;54.174;12.092;2022-08-11T08:27:28;102449.28;;;26.34;65.97
29505;BME280;16452;54.174;12.092;2022-08-11T08:29:54;102446.75;;;26.42;66.91
29505;BME280;16452;54.174;12.092;2022-08-11T08:32:41;102449.41;;;26.61;67.13
29505;BME280;16452;54.174;12.092;2022-08-11T08:35:10;102450.81;;;26.46;66.06
29505;BME280;16452;54.174;12.092;2022-08-11T08:37:37;102447.84;;;26.68;66.30
29505;BME280;16452;54.174;12.092;2022-08-11T08:40:07;102453.75;;;26.72;66.99
29505;BME280;16452;54.174;12.092;2022-08-11T08:42:44;102454.59;;;26.63;66.71
29505;BME280;16452;54.174;12.092;2022-08-11T08:45:12;102454.03;;;26.78;66.48
29505;BME280;16452;54.174;12.092;2022-08-11T08:47:50;102454.84;;;26.98;69.63
29505;BME280;16452;54.174;12.092;2022-08-11T08:50:21;102453.97;;;27.07;68.98
29505;BME280;16452;54.174;12.092;2022-08-11T08:52:57;102453.19;;;26.68;70.12
29505;BME280;16452;54.174;12.092;2022-08-11T08:55:27;102448.38;;;26.81;70.51
29505;BME280;16452;54.174;12.092;2022-08-11T08:57:55;102445.16;;;26.78;70.25
29505;BME280;16452;54.174;12.092;2022-08-11T09:00:25;102449.97;;;26.16;72.99
29505;BME280;16452;54.174;12.092;2022-08-11T09:02:53;102446.91;;;26.50;73.84
29505;BME280;16452;54.174;12.092;2022-08-11T09:05:19;102446.63;;;26.43;73.49
29505;BME280;16452;54.174;12.092;2022-08-11T09:07:46;102448.72;;;26.49;73.13
29505;BME280;16452;54.174;12.092;2022-08-11T09:10:18;102456.72;;;26.78;72.38
29505;BME280;16452;54.174;12.092;2022-08-11T09:12:45;102450.66;;;26.57;73.69
29505;BME280;16452;54.174;12.092;2022-08-11T09:15:12;102450.41;;;26.41;75.93
29505;BME280;16452;54.174;12.092;2022-08-11T09:17:44;102456.41;;;26.91;74.09
29505;BME280;16452;54.174;12.092;2022-08-11T09:20:21;102446.81;;;27.08;74.13
29505;BME280;16452;54.174;12.092;2022-08-11T09:22:50;102443.03;;;27.28;74.02
29505;BME280;16452;54.174;12.092;2022-08-11T09:25:38;102442.75;;;26.94;74.04
29505;BME280;16452;54.174;12.092;2022-08-11T09:28:24;102445.56;;;26.92;73.56
29505;BME280;16452;54.174;12.092;2022-08-11T09:30:54;102438.31;;;27.12;72.62
29505;BME280;16452;54.174;12.092;2022-08-11T09:33:21;102437.16;;;27.15;72.50
29505;BME280;16452;54.174;12.092;2022-08-11T09:35:51;102437.75;;;27.46;71.94
29505;BME280;16452;54.174;12.092;2022-08-11T09:38:19;102440.34;;;27.65;70.82
29505;BME280;16452;54.174;12.092;2022-08-11T09:41:08;102435.34;;;27.15;72.69
29505;BME280;16452;54.174;12.092;2022-08-11T09:43:45;102436.38;;;27.32;71.97
29505;BME280;16452;54.174;12.092;2022-08-11T09:46:30;102428.09;;;26.98;73.92
29505;BME280;16452;54.174;12.092;2022-08-11T09:49:00;102435.31;;;26.88;75.66
29505;BME280;16452;54.174;12.092;2022-08-11T09:51:31;102432.06;;;27.31;74.92
29505;BME280;16452;54.174;12.092;2022-08-11T09:54:00;102430.38;;;27.57;74.99
29505;BME280;16452;54.174;12.092;2022-08-11T09:56:28;102433.38;;;27.45;74.31
29505;BME280;16452;54.174;12.092;2022-08-11T09:59:13;102422.06;;;27.23;75.13
29505;BME280;16452;54.174;12.092;2022-08-11T10:01:53;102426.56;;;27.50;75.20
29505;BME280;16452;54.174;12.092;2022-08-11T10:04:43;102419.13;;;27.54;73.67
29505;BME280;16452;54.174;12.092;2022-08-11T10:07:15;102415.53;;;27.63;73.58
29505;BME280;16452;54.174;12.092;2022-08-11T10:10:00;102407.19;;;27.38;74.16
29505;BME280;16452;54.174;12.092;2022-08-11T10:12:39;102403.88;;;27.27;74.94
29505;BME280;16452;54.174;12.092;2022-08-11T10:15:13;102400.41;;;27.17;76.63
29505;BME280;16452;54.174;12.092;2022-08-11T10:18:16;102396.34;;;27.40;75.58
29505;BME280;16452;54.174;12.092;2022-08-11T10:21:11;102406.22;;;27.12;76.99
29505;BME280;16452;54.174;12.092;2022-08-11T10:23:39;102403.84;;;27.36;76.00
29505;BME280;16452;54.174;12.092;2022-08-11T10:26:28;102410.97;;;26.62;77.28
29505;BME280;16452;54.174;12.092;2022-08-11T10:29:13;102407.63;;;27.07;77.29
29505;BME280;16452;54.174;12.092;2022-08-11T10:31:59;102401.09;;;27.19;77.14
29505;BME280;16452;54.174;12.092;2022-08-11T10:34:47;102395.59;;;27.48;75.50
29505;BME280;16452;54.174;12.092;2022-08-11T10:37:15;102397.41;;;27.74;73.42
29505;BME280;16452;54.174;12.092;2022-08-11T10:39:42;102398.28;;;27.48;74.95
29505;BME280;16452;54.174;12.092;2022-08-11T10:42:10;102399.22;;;27.29;74.40
29505;BME280;16452;54.174;12.092;2022-08-11T10:44:57;102395.44;;;27.22;76.13
29505;BME280;16452;54.174;12.092;2022-08-11T10:47:24;102391.13;;;27.38;73.74
29505;BME280;16452;54.174;12.092;2022-08-11T10:50:11;102388.84;;;27.71;72.20
29505;BME280;16452;54.174;12.092;2022-08-11T10:52:58;102396.66;;;27.37;73.13
29505;BME280;16452;54.174;12.092;2022-08-11T10:55:45;102389.22;;;27.31;72.37
29505;BME280;16452;54.174;12.092;2022-08-11T10:58:30;102383.25;;;27.10;72.60
29505;BME280;16452;54.174;12.092;2022-08-11T11:01:34;102380.75;;;27.08;72.33
29505;BME280;16452;54.174;12.092;2022-08-11T11:04:16;102378.53;;;27.21;73.00
29505;BME280;16452;54.174;12.092;2022-08-11T11:07:16;102380.63;;;27.27;71.08
29505;BME280;16452;54.174;12.092;2022-08-11T11:09:49;102371.09;;;27.70;69.24
29505;BME280;16452;54.174;12.092;2022-08-11T11:15:09;102371.78;;;27.72;66.69
29505;BME280;16452;54.174;12.092;2022-08-11T11:18:03;102369.31;;;27.78;67.50
29505;BME280;16452;54.174;12.092;2022-08-11T11:26:35;102360.06;;;27.01;74.07
29505;BME280;16452;54.174;12.092;2022-08-11T11:35:22;102356.69;;;27.89;72.04
29505;BME280;16452;54.174;12.092;2022-08-11T11:37:54;102349.56;;;27.97;72.58
29505;BME280;16452;54.174;12.092;2022-08-11T11:40:22;102350.28;;;27.82;73.03
29505;BME280;16452;54.174;12.092;2022-08-11T11:42:51;102356.84;;;28.05;72.52
29505;BME280;16452;54.174;12.092;2022-08-11T11:45:21;102347.09;;;27.51;75.43
29505;BME280;16452;54.174;12.092;2022-08-11T11:47:52;102343.44;;;27.52;75.09
29505;BME280;16452;54.174;12.092;2022-08-11T11:50:35;102347.50;;;27.91;72.88
29505;BME280;16452;54.174;12.092;2022-08-11T11:53:09;102353.31;;;27.69;72.95
29505;BME280;16452;54.174;12.092;2022-08-11T11:55:36;102345.28;;;27.51;73.26
29505;BME280;16452;54.174;12.092;2022-08-11T11:58:03;102344.47;;;27.41;72.72
29505;BME280;16452;54.174;12.092;2022-08-11T12:00:50;102352.78;;;27.38;73.57
29505;BME280;16452;54.174;12.092;2022-08-11T12:03:36;102350.69;;;27.14;74.83
29505;BME280;16452;54.174;12.092;2022-08-11T12:06:02;102345.63;;;27.11;74.54
29505;BME280;16452;54.174;12.092;2022-08-11T12:08:29;102351.06;;;27.02;75.86
29505;BME280;16452;54.174;12.092;2022-08-11T12:11:04;102353.34;;;26.96;75.44
29505;BME280;16452;54.174;12.092;2022-08-11T12:13:53;102347.13;;;26.96;74.29
29505;BME280;16452;54.174;12.092;2022-08-11T12:16:22;102344.41;;;27.06;73.78
29505;BME280;16452;54.174;12.092;2022-08-11T12:18:58;102342.84;;;27.58;71.34
29505;BME280;16452;54.174;12.092;2022-08-11T12:21:27;102344.38;;;27.33;72.93
29505;BME280;16452;54.174;12.092;2022-08-11T12:23:56;102339.31;;;27.57;71.04
29505;BME280;16452;54.174;12.092;2022-08-11T12:26:41;102343.56;;;27.50;71.98
29505;BME280;16452;54.174;12.092;2022-08-11T12:29:17;102332.81;;;27.32;72.45
29505;BME280;16452;54.174;12.092;2022-08-11T12:31:44;102333.19;;;26.92;71.67
29505;BME280;16452;54.174;12.092;2022-08-11T12:34:13;102326.44;;;27.43;69.84
29505;BME280;16452;54.174;12.092;2022-08-11T12:36:59;102330.06;;;27.24;69.64
29505;BME280;16452;54.174;12.092;2022-08-11T12:39:34;102325.94;;;27.30;70.50
29505;BME280;16452;54.174;12.092;2022-08-11T12:42:20;102322.13;;;26.68;71.87
29505;BME280;16452;54.174;12.092;2022-08-11T12:45:11;102327.94;;;27.01;71.82
29505;BME280;16452;54.174;12.092;2022-08-11T12:48:07;102323.72;;;26.98;71.12
29505;BME280;16452;54.174;12.092;2022-08-11T12:51:01;102313.44;;;27.21;70.74
29505;BME280;16452;54.174;12.092;2022-08-11T12:54:14;102312.84;;;27.27;71.03
29505;BME280;16452;54.174;12.092;2022-08-11T12:56:48;102309.47;;;27.07;71.69
29505;BME280;16452;54.174;12.092;2022-08-11T12:59:34;102305.09;;;27.51;71.70
29505;BME280;16452;54.174;12.092;2022-08-11T13:02:21;102302.13;;;27.72;70.17
29505;BME280;16452;54.174;12.092;2022-08-11T13:05:12;102302.28;;;27.53;70.14
29505;BME280;16452;54.174;12.092;2022-08-11T13:07:44;102310.13;;;27.36;70.61
29505;BME280;16452;54.174;12.092;2022-08-11T13:10:14;102299.84;;;27.32;69.97
29505;BME280;16452;54.174;12.092;2022-08-11T13:13:03;102304.53;;;27.30;71.52
29505;BME280;16452;54.174;12.092;2022-08-11T13:15:29;102294.09;;;27.27;71.51
29505;BME280;16452;54.174;12.092;2022-08-11T13:17:56;102288.09;;;27.25;71.21
29505;BME280;16452;54.174;12.092;2022-08-11T13:20:24;102292.03;;;27.21;70.45
29505;BME280;16452;54.174;12.092;2022-08-11T13:22:54;102287.25;;;26.97;72.09
29505;BME280;16452;54.174;12.092;2022-08-11T13:25:22;102278.13;;;27.17;72.59
29505;BME280;16452;54.174;12.092;2022-08-11T13:27:52;102279.56;;;27.12;73.32
29505;BME280;16452;54.174;12.092;2022-08-11T13:30:18;102286.97;;;27.00;73.31
29505;BME280;16452;54.174;12.092;2022-08-11T13:33:06;102279.25;;;27.15;72.45
29505;BME280;16452;54.174;12.092;2022-08-11T13:35:32;102284.78;;;27.13;74.35
29505;BME280;16452;54.174;12.092;2022-08-11T13:38:02;102278.56;;;26.95;74.49
29505;BME280;16452;54.174;12.092;2022-08-11T13:40:30;102269.97;;;26.91;75.17
29505;BME280;16452;54.174;12.092;2022-08-11T13:42:56;102275.88;;;26.95;75.18
29505;BME280;16452;54.174;12.092;2022-08-11T13:45:26;102271.47;;;27.21;74.52
29505;BME280;16452;54.174;12.092;2022-08-11T13:47:56;102271.13;;;26.89;76.03
29505;BME280;16452;54.174;12.092;2022-08-11T13:50:26;102269.25;;;27.17;74.61
29505;BME280;16452;54.174;12.092;2022-08-11T13:53:11;102265.56;;;27.00;74.43
29505;BME280;16452;54.174;12.092;2022-08-11T13:55:41;102262.31;;;27.24;73.47
29505;BME280;16452;54.174;12.092;2022-08-11T13:58:09;102265.81;;;27.24;74.07
29505;BME280;16452;54.174;12.092;2022-08-11T14:00:36;102261.38;;;27.15;73.60
29505;BME280;16452;54.174;12.092;2022-08-11T14:03:07;102256.69;;;27.00;73.26
29505;BME280;16452;54.174;12.092;2022-08-11T14:05:43;102251.84;;;27.30;72.88
29505;BME280;16452;54.174;12.092;2022-08-11T14:08:15;102248.81;;;26.98;75.79
29505;BME280;16452;54.174;12.092;2022-08-11T14:10:47;102249.75;;;27.07;75.00
29505;BME280;16452;54.174;12.092;2022-08-11T14:13:37;102245.84;;;27.01;75.35
29505;BME280;16452;54.174;12.092;2022-08-11T14:16:10;102238.81;;;26.73;75.07
29505;BME280;16452;54.174;12.092;2022-08-11T14:18:42;102240.44;;;26.83;76.03
29505;BME280;16452;54.174;12.092;2022-08-11T14:21:13;102238.69;;;26.92;76.78
29505;BME280;16452;54.174;12.092;2022-08-11T14:24:00;102242.53;;;26.80;75.91
29505;BME280;16452;54.174;12.092;2022-08-11T14:26:27;102242.72;;;26.78;76.06
29505;BME280;16452;54.174;12.092;2022-08-11T14:29:17;102233.34;;;26.92;75.20
29505;BME280;16452;54.174;12.092;2022-08-11T14:31:53;102228.03;;;27.10;75.86
29505;BME280;16452;54.174;12.092;2022-08-11T14:34:23;102230.00;;;26.90;75.17
29505;BME280;16452;54.174;12.092;2022-08-11T14:36:57;102223.03;;;26.97;74.41
29505;BME280;16452;54.174;12.092;2022-08-11T14:39:28;102231.84;;;27.07;73.21
29505;BME280;16452;54.174;12.092;2022-08-11T14:42:03;102218.91;;;27.03;72.99
29505;BME280;16452;54.174;12.092;2022-08-11T14:45:03;102220.72;;;26.84;72.42
29505;BME280;16452;54.174;12.092;2022-08-11T14:47:53;102223.22;;;26.86;71.70
29505;BME280;16452;54.174;12.092;2022-08-11T14:50:25;102230.72;;;26.55;72.69
29505;BME280;16452;54.174;12.092;2022-08-11T14:55:28;102217.41;;;27.00;71.73
29505;BME280;16452;54.174;12.092;2022-08-11T14:58:19;102217.66;;;27.24;71.51
29505;BME280;16452;54.174;12.092;2022-08-11T15:00:46;102209.53;;;27.16;72.51
29505;BME280;16452;54.174;12.092;2022-08-11T15:03:16;102219.31;;;27.08;72.79
29505;BME280;16452;54.174;12.092;2022-08-11T15:05:52;102221.78;;;27.19;72.21
29505;BME280;16452;54.174;12.092;2022-08-11T15:08:19;102211.69;;;27.13;72.30
29505;BME280;16452;54.174;12.092;2022-08-11T15:11:07;102210.69;;;27.14;71.62
29505;BME280;16452;54.174;12.092;2022-08-11T15:13:54;102203.69;;;27.03;71.74
29505;BME280;16452;54.174;12.092;2022-08-11T15:16:21;102209.03;;;26.58;71.62
29505;BME280;16452;54.174;12.092;2022-08-11T15:19:09;102199.13;;;26.86;70.93
29505;BME280;16452;54.174;12.092;2022-08-11T15:21:36;102202.56;;;26.88;70.22
29505;BME280;16452;54.174;12.092;2022-08-11T15:24:20;102201.81;;;26.95;70.38
29505;BME280;16452;54.174;12.092;2022-08-11T15:26:46;102199.97;;;27.31;69.46
29505;BME280;16452;54.174;12.092;2022-08-11T15:29:35;102198.72;;;27.26;69.79
29505;BME280;16452;54.174;12.092;2022-08-11T15:32:22;102201.50;;;27.34;70.07
29505;BME280;16452;54.174;12.092;2022-08-11T15:35:08;102200.13;;;27.12;70.38
29505;BME280;16452;54.174;12.092;2022-08-11T15:37:59;102191.25;;;26.67;71.63
29505;BME280;16452;54.174;12.092;2022-08-11T15:40:34;102192.28;;;26.83;71.32
29505;BME280;16452;54.174;12.092;2022-08-11T15:43:32;102192.00;;;26.59;72.10
29505;BME280;16452;54.174;12.092;2022-08-11T15:46:32;102188.19;;;26.62;70.87
29505;BME280;16452;54.174;12.092;2022-08-11T15:49:22;102184.38;;;26.64;69.79
29505;BME280;16452;54.174;12.092;2022-08-11T15:52:10;102183.03;;;26.78;69.74
29505;BME280;16452;54.174;12.092;2022-08-11T15:54:40;102176.22;;;26.56;70.26
29505;BME280;16452;54.174;12.092;2022-08-11T15:57:11;102177.44;;;26.44;70.92
29505;BME280;16452;54.174;12.092;2022-08-11T16:00:05;102174.13;;;26.23;71.25
29505;BME280;16452;54.174;12.092;2022-08-11T16:02:51;102178.25;;;26.54;70.80
29505;BME280;16452;54.174;12.092;2022-08-11T16:05:22;102180.78;;;26.55;70.57
29505;BME280;16452;54.174;12.092;2022-08-11T16:07:51;102180.34;;;26.50;70.87
29505;BME280;16452;54.174;12.092;2022-08-11T16:10:19;102178.03;;;26.65;70.80
29505;BME280;16452;54.174;12.092;2022-08-11T16:12:59;102172.97;;;26.35;71.76
29505;BME280;16452;54.174;12.092;2022-08-11T16:15:43;102174.72;;;25.80;73.60
29505;BME280;16452;54.174;12.092;2022-08-11T16:18:33;102169.53;;;26.15;72.85
29505;BME280;16452;54.174;12.092;2022-08-11T16:21:23;102164.78;;;26.09;72.97
29505;BME280;16452;54.174;12.092;2022-08-11T16:23:53;102166.53;;;25.81;71.02
29505;BME280;16452;54.174;12.092;2022-08-11T16:26:23;102158.97;;;26.23;71.78
29505;BME280;16452;54.174;12.092;2022-08-11T16:28:59;102150.88;;;26.42;70.90
29505;BME280;16452;54.174;12.092;2022-08-11T16:31:26;102150.88;;;26.33;71.62
29505;BME280;16452;54.174;12.092;2022-08-11T16:33:54;102150.63;;;26.36;70.92